Time;durP1;ratioP1;P1;durP2;ratioP2;P2;SDS_P1;SDS_P2;PMS_P1;PMS_P2;Temp;Humidity;BMP_temperature;BMP_pressure;BME280_temperature;BME280_humidity;BME280_pressure;Samples;Min_cycle;Max_cycle;Signal;HPM_P1;HPM_P2
2021/12/30 00:02:13;;;;;;;0.00;0.00;;;8.20;99.90;;;;;;5003178;28;20485;-60
2021/12/30 00:04:39;;;;;;;0.00;0.00;;;8.20;99.90;;;;;;5001893;28;20053;-60
2021/12/30 00:07:08;;;;;;;0.00;0.00;;;8.30;99.90;;;;;;5002012;28;20569;-60
2021/12/30 00:09:36;;;;;;;0.00;0.00;;;8.30;99.90;;;;;;5003027;28;20046;-60
2021/12/30 00:12:02;;;;;;;0.00;0.00;;;8.30;99.90;;;;;;5003212;28;20609;-60
2021/12/30 00:14:28;;;;;;;0.08;0.08;;;8.70;99.90;;;;;;5003055;28;20068;-61
2021/12/30 00:16:53;;;;;;;0.00;0.00;;;8.30;99.90;;;;;;5002727;28;20049;-60
2021/12/30 00:19:19;;;;;;;0.00;0.00;;;8.30;99.90;;;;;;5002545;28;20524;-60
2021/12/30 00:21:45;;;;;;;0.00;0.00;;;8.70;99.90;;;;;;5002088;28;20516;-60
2021/12/30 00:24:11;;;;;;;0.00;0.00;;;8.60;99.90;;;;;;5001448;28;20053;-60
2021/12/30 00:26:37;;;;;;;0.00;0.00;;;8.30;99.90;;;;;;5002780;28;20140;-60
2021/12/30 00:29:03;;;;;;;0.00;0.00;;;8.20;99.90;;;;;;5011179;28;20041;-58
2021/12/30 00:31:30;;;;;;;0.00;0.00;;;8.50;99.90;;;;;;5004897;28;20041;-59
2021/12/30 00:33:56;;;;;;;0.00;0.00;;;8.60;99.90;;;;;;5002545;28;20045;-60
2021/12/30 00:36:22;;;;;;;0.00;0.00;;;8.20;99.90;;;;;;5004942;28;20072;-60
2021/12/30 00:38:47;;;;;;;0.00;0.00;;;8.20;99.90;;;;;;5006506;28;20085;-61
2021/12/30 00:41:14;;;;;;;0.00;0.00;;;8.20;99.90;;;;;;5005998;28;20045;-61
2021/12/30 00:43:40;;;;;;;0.00;0.00;;;8.80;99.90;;;;;;5006692;28;20712;-61
2021/12/30 00:46:08;;;;;;;0.00;0.00;;;8.80;99.90;;;;;;5006317;28;20450;-61
2021/12/30 00:48:34;;;;;;;0.00;0.00;;;8.20;99.90;;;;;;5006627;28;20650;-60
2021/12/30 00:51:00;;;;;;;0.00;0.00;;;8.60;99.90;;;;;;5005336;28;20046;-61
2021/12/30 00:53:26;;;;;;;0.00;0.00;;;7.90;99.90;;;;;;5006225;28;20050;-61
2021/12/30 00:55:51;;;;;;;0.00;0.00;;;8.00;99.90;;;;;;5006008;28;20054;-60
2021/12/30 00:58:17;;;;;;;0.00;0.00;;;8.10;99.90;;;;;;5006082;28;20045;-60
2021/12/30 01:00:46;;;;;;;0.00;0.00;;;8.20;99.90;;;;;;5006326;28;20077;-60
2021/12/30 01:03:13;;;;;;;0.00;0.00;;;8.20;99.90;;;;;;5005668;28;20460;-61
2021/12/30 01:05:39;;;;;;;0.00;0.00;;;8.20;99.90;;;;;;5004388;28;20085;-60
2021/12/30 01:08:07;;;;;;;0.00;0.00;;;8.20;99.90;;;;;;5005991;28;20041;-61
2021/12/30 01:10:34;;;;;;;0.10;0.10;;;8.20;99.90;;;;;;5006379;28;20135;-60
2021/12/30 01:13:05;;;;;;;0.00;0.00;;;8.20;99.90;;;;;;5005766;28;20058;-60
2021/12/30 01:15:46;;;;;;;0.00;0.00;;;8.30;99.90;;;;;;5004719;28;20042;-61
2021/12/30 01:18:36;;;;;;;0.00;0.00;;;8.20;99.90;;;;;;5018221;28;20053;-61
2021/12/30 01:21:04;;;;;;;15.43;0.35;;;8.20;99.90;;;;;;5019454;28;20133;-60
2021/12/30 01:23:29;;;;;;;0.32;0.20;;;8.10;99.90;;;;;;5025638;28;20049;-60
2021/12/30 01:25:55;;;;;;;0.00;0.00;;;8.10;99.90;;;;;;5025582;28;20048;-60
2021/12/30 01:28:22;;;;;;;0.00;0.00;;;8.10;99.90;;;;;;5021163;28;20033;-60
2021/12/30 01:30:48;;;;;;;0.00;0.00;;;8.00;99.90;;;;;;5011158;28;20042;-60
2021/12/30 01:33:15;;;;;;;0.65;0.32;;;7.20;99.90;;;;;;5005319;28;20044;-61
2021/12/30 01:35:41;;;;;;;0.00;0.00;;;8.00;99.90;;;;;;5006072;28;20112;-60
2021/12/30 01:38:11;;;;;;;0.00;0.00;;;7.90;99.90;;;;;;5024670;28;20049;-61
2021/12/30 01:40:40;;;;;;;0.00;0.00;;;7.80;99.90;;;;;;5024886;28;20072;-61
2021/12/30 01:43:06;;;;;;;0.00;0.00;;;7.70;99.90;;;;;;5024744;28;20080;-61
2021/12/30 01:45:32;;;;;;;0.10;0.10;;;7.70;99.90;;;;;;5020583;28;20439;-60
2021/12/30 01:47:58;;;;;;;0.00;0.00;;;7.70;99.90;;;;;;5005030;28;20038;-61
2021/12/30 01:50:25;;;;;;;0.00;0.00;;;7.70;99.90;;;;;;5002451;28;20073;-60
2021/12/30 01:52:51;;;;;;;0.00;0.00;;;7.60;99.90;;;;;;5004757;28;20128;-60
2021/12/30 01:55:18;;;;;;;0.00;0.00;;;7.60;99.90;;;;;;5020583;28;20092;-60
2021/12/30 01:57:46;;;;;;;0.00;0.00;;;7.50;99.90;;;;;;5020276;28;20057;-61
2021/12/30 02:00:15;;;;;;;0.00;0.00;;;7.50;99.90;;;;;;5010408;28;20072;-61
2021/12/30 02:02:41;;;;;;;0.00;0.00;;;7.50;99.90;;;;;;5024791;28;20041;-60
2021/12/30 02:05:08;;;;;;;0.00;0.00;;;7.50;99.90;;;;;;5024307;28;20299;-61
2021/12/30 02:07:33;;;;;;;0.00;0.00;;;7.50;99.90;;;;;;4999430;23;20059;-60
2021/12/30 02:10:01;;;;;;;0.00;0.00;;;7.50;99.90;;;;;;5033120;28;20148;-61
2021/12/30 02:12:37;;;;;;;0.00;0.00;;;7.50;99.90;;;;;;5020522;28;20429;-61
2021/12/30 02:15:06;;;;;;;0.00;0.00;;;7.50;99.90;;;;;;4943228;28;20413;-61
2021/12/30 02:17:32;;;;;;;0.00;0.00;;;7.50;99.90;;;;;;4943021;28;20047;-60
2021/12/30 02:20:06;;;;;;;12.68;3.20;;;7.50;99.90;;;;;;4941550;28;20055;-60
2021/12/30 02:22:32;;;;;;;0.00;0.00;;;7.60;99.90;;;;;;4942693;28;20694;-61
2021/12/30 02:24:59;;;;;;;0.05;0.05;;;7.50;99.90;;;;;;4941923;28;20127;-61
2021/12/30 02:27:26;;;;;;;0.10;0.10;;;7.60;99.90;;;;;;4941401;28;20135;-60
2021/12/30 02:29:52;;;;;;;0.00;0.00;;;7.60;99.90;;;;;;4932692;29;20051;-60
2021/12/30 02:32:21;;;;;;;3.10;1.55;;;7.70;99.90;;;;;;4943338;28;20078;-60
2021/12/30 02:34:48;;;;;;;0.00;0.00;;;7.60;99.90;;;;;;4942459;28;20051;-60
2021/12/30 02:37:18;;;;;;;0.00;0.00;;;7.60;99.90;;;;;;4943642;28;20043;-61
2021/12/30 02:39:49;;;;;;;0.00;0.00;;;7.70;99.90;;;;;;4943279;28;20062;-60
2021/12/30 02:42:14;;;;;;;0.00;0.00;;;8.20;99.90;;;;;;4943153;28;20047;-60
2021/12/30 02:44:40;;;;;;;0.00;0.00;;;7.60;99.90;;;;;;4942661;28;20054;-60
2021/12/30 02:47:06;;;;;;;0.77;0.77;;;7.60;99.90;;;;;;4943373;28;20035;-61
2021/12/30 02:49:32;;;;;;;0.00;0.00;;;7.60;99.90;;;;;;4943069;28;20130;-60
2021/12/30 02:51:57;;;;;;;0.00;0.00;;;8.20;99.90;;;;;;4943235;28;20046;-61
2021/12/30 02:54:23;;;;;;;0.00;0.00;;;7.70;99.90;;;;;;4943075;28;20059;-60
2021/12/30 02:56:49;;;;;;;0.00;0.00;;;7.70;99.90;;;;;;4942333;28;20063;-60
2021/12/30 02:59:17;;;;;;;0.00;0.00;;;8.30;99.90;;;;;;4943086;28;20058;-60
2021/12/30 03:01:43;;;;;;;0.00;0.00;;;7.70;99.90;;;;;;4943022;28;20066;-60
2021/12/30 03:04:10;;;;;;;0.00;0.00;;;8.40;99.90;;;;;;4942829;28;20490;-60
2021/12/30 03:06:36;;;;;;;0.00;0.00;;;7.50;99.90;;;;;;4941781;28;20059;-60
2021/12/30 03:09:02;;;;;;;0.10;0.10;;;7.70;99.90;;;;;;4943038;28;20073;-60
2021/12/30 03:11:29;;;;;;;0.00;0.00;;;7.60;99.90;;;;;;4943165;28;20036;-60
2021/12/30 03:13:55;;;;;;;0.00;0.00;;;7.70;99.90;;;;;;4941796;28;20056;-60
2021/12/30 03:16:24;;;;;;;0.00;0.00;;;7.70;99.90;;;;;;4942831;28;20043;-60
2021/12/30 03:18:51;;;;;;;0.75;0.75;;;7.70;99.90;;;;;;4942876;28;20640;-59
2021/12/30 03:21:19;;;;;;;0.00;0.00;;;7.80;99.90;;;;;;4942191;28;20051;-59
2021/12/30 03:23:46;;;;;;;0.00;0.00;;;7.80;99.90;;;;;;4942456;28;20062;-60
2021/12/30 03:26:11;;;;;;;0.00;0.00;;;7.70;99.90;;;;;;4942688;28;20058;-60
2021/12/30 03:28:40;;;;;;;0.00;0.00;;;7.70;99.90;;;;;;4935850;28;20051;-60
2021/12/30 03:31:07;;;;;;;0.10;0.10;;;7.70;99.90;;;;;;4928489;28;20075;-60
2021/12/30 03:33:33;;;;;;;0.00;0.00;;;7.70;99.90;;;;;;4923638;29;20117;-60
2021/12/30 03:36:01;;;;;;;0.70;0.68;;;7.70;99.90;;;;;;4937671;29;20645;-60
2021/12/30 03:38:34;;;;;;;0.00;0.00;;;7.70;99.90;;;;;;4922826;29;20451;-60
2021/12/30 03:41:00;;;;;;;0.00;0.00;;;8.10;99.90;;;;;;4923591;29;20120;-59
2021/12/30 03:43:27;;;;;;;0.03;0.03;;;7.70;99.90;;;;;;4923357;29;20047;-60
2021/12/30 03:45:53;;;;;;;0.00;0.00;;;7.70;99.90;;;;;;4923331;28;20101;-60
2021/12/30 03:48:19;;;;;;;0.00;0.00;;;7.80;99.90;;;;;;4921565;28;20051;-60
2021/12/30 03:50:45;;;;;;;0.00;0.00;;;7.70;99.90;;;;;;4922886;29;20043;-60
2021/12/30 03:53:15;;;;;;;0.00;0.00;;;7.80;99.90;;;;;;4923273;29;20054;-60
2021/12/30 03:55:42;;;;;;;0.00;0.00;;;8.20;99.90;;;;;;4923065;28;20077;-60
2021/12/30 03:58:09;;;;;;;0.00;0.00;;;8.10;99.90;;;;;;4923011;29;20047;-60
2021/12/30 04:00:37;;;;;;;0.00;0.00;;;7.80;99.90;;;;;;4923472;29;20484;-60
2021/12/30 04:03:04;;;;;;;0.00;0.00;;;7.80;99.90;;;;;;4921766;29;20156;-61
2021/12/30 04:05:30;;;;;;;0.00;0.00;;;7.80;99.90;;;;;;4922943;29;20383;-60
2021/12/30 04:07:55;;;;;;;0.47;0.35;;;7.90;99.90;;;;;;4921533;29;20071;-60
2021/12/30 04:10:22;;;;;;;0.22;0.22;;;7.90;99.90;;;;;;4922583;29;20690;-60
2021/12/30 04:12:50;;;;;;;0.00;0.00;;;7.90;99.90;;;;;;4923048;29;20044;-60
2021/12/30 04:15:15;;;;;;;0.00;0.00;;;7.90;99.90;;;;;;4923196;29;20047;-60
2021/12/30 04:17:43;;;;;;;0.10;0.10;;;8.00;99.90;;;;;;4922862;28;20085;-60
2021/12/30 04:20:11;;;;;;;0.00;0.00;;;8.00;99.90;;;;;;4921712;29;20043;-60
2021/12/30 04:22:38;;;;;;;0.00;0.00;;;8.00;99.90;;;;;;4922808;29;20052;-60
2021/12/30 04:25:07;;;;;;;0.00;0.00;;;8.00;99.90;;;;;;4922863;29;20097;-60
2021/12/30 04:27:33;;;;;;;0.00;0.00;;;8.10;99.90;;;;;;4924251;29;20055;-60
2021/12/30 04:29:59;;;;;;;0.00;0.00;;;8.10;99.90;;;;;;4937031;28;20536;-60
2021/12/30 04:32:25;;;;;;;0.00;0.00;;;8.60;99.90;;;;;;4922775;29;20059;-60
2021/12/30 04:34:50;;;;;;;0.00;0.00;;;8.20;99.90;;;;;;4921931;29;20101;-60
2021/12/30 04:37:16;;;;;;;0.00;0.00;;;8.20;99.90;;;;;;4922622;29;20040;-60
2021/12/30 04:39:42;;;;;;;0.00;0.00;;;8.20;99.90;;;;;;4922277;29;20402;-60
2021/12/30 04:42:08;;;;;;;0.00;0.00;;;8.90;99.90;;;;;;4921594;28;20063;-60
2021/12/30 04:44:34;;;;;;;0.80;0.38;;;8.30;99.90;;;;;;4921755;29;20048;-60
2021/12/30 04:46:59;;;;;;;0.05;0.05;;;8.30;99.90;;;;;;4922929;29;20048;-60
2021/12/30 04:49:25;;;;;;;0.00;0.00;;;8.30;99.90;;;;;;4921810;29;20394;-61
2021/12/30 04:51:52;;;;;;;0.00;0.00;;;8.60;99.90;;;;;;4922030;28;20194;-60
2021/12/30 04:54:18;;;;;;;0.05;0.03;;;8.40;99.90;;;;;;4922702;28;20087;-60
2021/12/30 04:56:44;;;;;;;0.00;0.00;;;8.40;99.90;;;;;;4922721;29;20079;-60
2021/12/30 04:59:10;;;;;;;0.00;0.00;;;8.50;99.90;;;;;;4922841;28;20413;-60
2021/12/30 05:01:35;;;;;;;0.08;0.08;;;8.60;99.90;;;;;;4922084;29;20845;-60
2021/12/30 05:04:01;;;;;;;0.00;0.00;;;8.60;99.90;;;;;;4922336;29;20044;-60
2021/12/30 05:06:27;;;;;;;0.00;0.00;;;8.70;99.90;;;;;;4921213;28;20067;-60
2021/12/30 05:08:53;;;;;;;0.00;0.00;;;8.60;99.90;;;;;;4922499;29;20051;-60
2021/12/30 05:11:18;;;;;;;0.17;0.17;;;8.80;99.90;;;;;;4922333;29;20047;-59
2021/12/30 05:13:44;;;;;;;0.35;0.20;;;8.80;99.90;;;;;;4921930;29;20043;-60
2021/12/30 05:16:09;;;;;;;0.20;0.20;;;8.70;99.90;;;;;;4922533;29;20138;-60
2021/12/30 05:18:36;;;;;;;0.05;0.05;;;8.70;99.90;;;;;;4922235;29;20052;-60
2021/12/30 05:21:05;;;;;;;0.00;0.00;;;9.10;99.90;;;;;;4924125;29;20075;-60
2021/12/30 05:23:31;;;;;;;0.00;0.00;;;8.80;99.90;;;;;;4925810;29;20044;-60
2021/12/30 05:25:57;;;;;;;0.10;0.10;;;9.10;99.90;;;;;;4925240;28;20395;-61
2021/12/30 05:28:24;;;;;;;0.10;0.10;;;9.40;99.90;;;;;;4928615;29;20078;-60
2021/12/30 05:30:50;;;;;;;0.00;0.00;;;9.00;99.90;;;;;;4932021;28;20055;-60
2021/12/30 05:33:16;;;;;;;0.40;0.40;;;9.00;99.90;;;;;;4925114;29;20764;-60
2021/12/30 05:35:41;;;;;;;0.20;0.20;;;9.10;99.90;;;;;;4923842;29;20036;-59
2021/12/30 05:38:07;;;;;;;0.00;0.00;;;9.10;99.90;;;;;;4940195;29;20047;-60
2021/12/30 05:40:33;;;;;;;0.00;0.00;;;10.60;99.90;;;;;;4925125;29;20550;-61
2021/12/30 05:43:00;;;;;;;3.40;0.50;;;9.20;99.90;;;;;;4925489;29;20051;-60
2021/12/30 05:45:26;;;;;;;0.00;0.00;;;9.30;99.90;;;;;;4925013;29;20055;-60
2021/12/30 05:47:53;;;;;;;0.00;0.00;;;9.60;99.90;;;;;;4924816;29;20127;-60
2021/12/30 05:50:23;;;;;;;0.00;0.00;;;9.40;99.90;;;;;;4924588;28;20052;-59
2021/12/30 05:52:49;;;;;;;0.00;0.00;;;9.50;99.90;;;;;;4939845;29;20058;-60
2021/12/30 05:55:15;;;;;;;2.78;1.05;;;10.00;99.90;;;;;;4925287;29;20043;-61
2021/12/30 05:57:42;;;;;;;0.20;0.20;;;9.50;99.90;;;;;;4924486;29;20047;-60
2021/12/30 06:00:10;;;;;;;0.00;0.00;;;10.10;99.90;;;;;;4925329;29;20096;-60
2021/12/30 06:02:35;;;;;;;0.00;0.00;;;9.60;99.90;;;;;;4925039;29;20043;-60
2021/12/30 06:05:02;;;;;;;0.20;0.20;;;9.70;99.90;;;;;;4939281;29;20052;-60
2021/12/30 06:07:28;;;;;;;0.08;0.08;;;9.70;99.90;;;;;;4924650;29;20056;-59
2021/12/30 06:09:54;;;;;;;0.75;0.05;;;9.80;99.90;;;;;;4923506;28;20135;-59
2021/12/30 06:12:20;;;;;;;1.95;1.17;;;9.80;99.90;;;;;;4924609;29;20134;-58
2021/12/30 06:14:45;;;;;;;0.00;0.00;;;9.80;99.90;;;;;;4924598;29;20051;-59
2021/12/30 06:17:13;;;;;;;0.30;0.30;;;9.80;99.90;;;;;;4924608;29;20119;-59
2021/12/30 06:19:39;;;;;;;0.00;0.00;;;9.80;99.90;;;;;;4924055;29;20048;-60
2021/12/30 06:22:05;;;;;;;0.22;0.22;;;9.80;99.90;;;;;;4924225;28;20127;-59
2021/12/30 06:24:31;;;;;;;0.00;0.00;;;9.90;99.90;;;;;;4925050;29;20079;-59
2021/12/30 06:26:57;;;;;;;0.00;0.00;;;9.90;99.90;;;;;;4924337;29;20040;-58
2021/12/30 06:29:23;;;;;;;0.22;0.20;;;9.90;99.90;;;;;;4934453;28;20141;-59
2021/12/30 06:31:48;;;;;;;0.00;0.00;;;9.90;99.90;;;;;;4923742;29;20048;-59
2021/12/30 06:34:14;;;;;;;0.00;0.00;;;9.90;99.90;;;;;;4938733;29;20406;-59
2021/12/30 06:36:40;;;;;;;0.10;0.10;;;10.00;99.90;;;;;;4924381;29;20581;-59
2021/12/30 06:39:06;;;;;;;0.10;0.10;;;11.30;99.90;;;;;;4924486;29;20130;-59
2021/12/30 06:41:32;;;;;;;1.35;0.43;;;10.20;99.90;;;;;;4924232;29;20139;-59
2021/12/30 06:43:58;;;;;;;0.00;0.00;;;10.10;99.90;;;;;;4924374;28;20117;-59
2021/12/30 06:46:24;;;;;;;0.17;0.17;;;10.30;99.90;;;;;;4923983;28;20047;-59
2021/12/30 06:48:50;;;;;;;0.10;0.10;;;10.10;99.90;;;;;;4923382;29;20083;-59
2021/12/30 06:51:21;;;;;;;0.10;0.10;;;10.10;99.90;;;;;;4923637;28;20585;-60
2021/12/30 06:53:47;;;;;;;0.00;0.00;;;11.30;99.90;;;;;;4924084;29;20110;-59
2021/12/30 06:56:13;;;;;;;0.00;0.00;;;10.20;99.90;;;;;;4924071;28;20310;-60
2021/12/30 06:58:39;;;;;;;0.00;0.00;;;11.30;99.90;;;;;;4924293;29;20130;-59
2021/12/30 07:01:04;;;;;;;2.00;0.52;;;10.60;99.90;;;;;;4923107;29;20787;-59
2021/12/30 07:03:30;;;;;;;0.00;0.00;;;10.30;99.90;;;;;;4924297;29;20515;-59
2021/12/30 07:05:56;;;;;;;0.03;0.03;;;10.20;99.90;;;;;;4923112;29;20155;-59
2021/12/30 07:08:23;;;;;;;0.20;0.10;;;10.30;99.90;;;;;;4923980;28;20162;-60
2021/12/30 07:10:49;;;;;;;0.00;0.00;;;10.70;99.90;;;;;;4923965;28;20048;-60
2021/12/30 07:13:15;;;;;;;0.00;0.00;;;10.30;99.90;;;;;;4923352;29;20083;-60
2021/12/30 07:15:40;;;;;;;0.00;0.00;;;10.40;99.90;;;;;;4922222;29;20086;-59
2021/12/30 07:18:06;;;;;;;0.00;0.00;;;10.60;99.90;;;;;;4938391;29;20047;-59
2021/12/30 07:20:32;;;;;;;0.00;0.00;;;10.40;99.90;;;;;;4923710;29;20056;-60
2021/12/30 07:22:57;;;;;;;0.00;0.00;;;10.50;99.90;;;;;;4923974;29;20506;-59
2021/12/30 07:25:24;;;;;;;0.00;0.00;;;10.40;99.90;;;;;;4923369;28;20052;-60
2021/12/30 07:27:52;;;;;;;0.00;0.00;;;10.40;99.90;;;;;;4925788;29;20043;-59
2021/12/30 07:30:19;;;;;;;0.08;0.08;;;10.50;99.90;;;;;;4931884;28;20091;-59
2021/12/30 07:32:46;;;;;;;0.00;0.00;;;10.60;99.90;;;;;;4938322;29;20120;-61
2021/12/30 07:35:13;;;;;;;0.00;0.00;;;10.60;99.90;;;;;;4922386;28;20055;-60
2021/12/30 07:37:39;;;;;;;0.00;0.00;;;10.50;99.90;;;;;;4923415;29;20050;-61
2021/12/30 07:40:06;;;;;;;0.00;0.00;;;11.70;99.90;;;;;;4923357;28;20720;-60
2021/12/30 07:42:32;;;;;;;0.05;0.05;;;10.60;99.90;;;;;;4922215;29;20142;-59
2021/12/30 07:44:58;;;;;;;0.20;0.20;;;11.80;99.90;;;;;;4922184;29;20087;-60
2021/12/30 07:47:23;;;;;;;0.10;0.10;;;10.60;99.90;;;;;;4922099;28;20109;-59
2021/12/30 07:49:49;;;;;;;0.00;0.00;;;10.60;99.90;;;;;;4922731;28;20047;-60
2021/12/30 07:52:15;;;;;;;0.00;0.00;;;10.70;99.90;;;;;;4923383;29;20040;-60
2021/12/30 07:54:43;;;;;;;0.30;0.20;;;10.60;99.90;;;;;;4923067;29;20048;-60
2021/12/30 07:57:10;;;;;;;0.00;0.00;;;10.70;99.90;;;;;;4922767;29;20051;-60
2021/12/30 07:59:36;;;;;;;0.20;0.13;;;10.70;99.90;;;;;;4923330;29;20075;-60
2021/12/30 08:02:02;;;;;;;0.65;0.30;;;10.70;99.90;;;;;;4923501;28;20056;-61
2021/12/30 08:04:27;;;;;;;0.20;0.10;;;10.70;99.90;;;;;;4923266;29;20478;-60
2021/12/30 08:06:53;;;;;;;0.00;0.00;;;10.80;99.90;;;;;;4920622;29;20182;-60
2021/12/30 08:09:19;;;;;;;0.05;0.05;;;11.30;99.90;;;;;;4922855;29;20051;-60
2021/12/30 08:11:44;;;;;;;0.00;0.00;;;10.70;99.90;;;;;;4922703;29;20584;-60
2021/12/30 08:14:10;;;;;;;0.00;0.00;;;10.80;99.90;;;;;;4923201;29;20050;-61
2021/12/30 08:16:36;;;;;;;0.00;0.00;;;10.80;99.90;;;;;;4923054;29;20044;-61
2021/12/30 08:19:01;;;;;;;0.00;0.00;;;11.80;99.90;;;;;;4922148;28;20089;-60
2021/12/30 08:21:27;;;;;;;0.00;0.00;;;10.80;99.90;;;;;;4922951;29;20130;-59
2021/12/30 08:23:53;;;;;;;0.00;0.00;;;10.80;99.90;;;;;;4922935;29;20051;-61
2021/12/30 08:26:19;;;;;;;0.00;0.00;;;10.50;99.90;;;;;;4922562;29;20051;-59
2021/12/30 08:28:45;;;;;;;0.00;0.00;;;10.80;99.90;;;;;;4928749;29;20044;-60
2021/12/30 08:31:12;;;;;;;0.00;0.00;;;10.90;99.90;;;;;;4927075;28;20051;-60
2021/12/30 08:33:38;;;;;;;0.00;0.00;;;11.00;99.90;;;;;;4922203;28;20490;-60
2021/12/30 08:36:03;;;;;;;0.00;0.00;;;10.90;99.90;;;;;;4922514;29;20058;-60
2021/12/30 08:38:29;;;;;;;0.00;0.00;;;10.90;99.90;;;;;;4922982;29;20040;-61
2021/12/30 08:40:55;;;;;;;0.00;0.00;;;11.00;99.90;;;;;;4922358;29;20068;-60
2021/12/30 08:43:21;;;;;;;3.92;0.13;;;11.00;99.90;;;;;;4921566;29;20070;-60
2021/12/30 08:45:47;;;;;;;0.00;0.00;;;12.10;99.90;;;;;;4921404;29;20056;-61
2021/12/30 08:48:13;;;;;;;0.10;0.10;;;11.00;99.90;;;;;;4922652;28;20117;-60
2021/12/30 08:50:39;;;;;;;0.00;0.00;;;11.00;99.90;;;;;;4921800;29;20043;-61
2021/12/30 08:53:05;;;;;;;0.00;0.00;;;11.60;99.90;;;;;;4922303;29;20110;-63
2021/12/30 08:55:31;;;;;;;0.00;0.00;;;11.00;99.90;;;;;;4924769;28;20058;-61
2021/12/30 08:57:57;;;;;;;0.00;0.00;;;11.00;99.90;;;;;;4925837;29;20403;-61
2021/12/30 09:00:29;;;;;;;0.00;0.00;;;11.40;99.90;;;;;;4925735;29;20051;-61
2021/12/30 09:02:57;;;;;;;0.00;0.00;;;11.10;99.90;;;;;;4925283;29;20051;-62
2021/12/30 09:05:23;;;;;;;0.00;0.00;;;11.20;99.90;;;;;;4925276;28;20360;-62
2021/12/30 09:07:50;;;;;;;0.00;0.00;;;11.10;99.90;;;;;;4925436;29;20418;-60
2021/12/30 09:10:17;;;;;;;0.00;0.00;;;11.10;99.90;;;;;;4924395;29;20054;-61
2021/12/30 09:12:46;;;;;;;0.00;0.00;;;11.10;99.90;;;;;;4924123;29;20040;-62
2021/12/30 09:15:16;;;;;;;0.00;0.00;;;11.10;99.90;;;;;;4925539;29;20060;-61
2021/12/30 09:17:45;;;;;;;0.00;0.00;;;11.40;99.90;;;;;;4925320;29;20044;-60
2021/12/30 09:20:11;;;;;;;0.10;0.10;;;11.20;99.90;;;;;;4924848;29;20701;-61
2021/12/30 09:22:37;;;;;;;0.00;0.00;;;11.40;99.90;;;;;;4924914;29;20087;-61
2021/12/30 09:25:07;;;;;;;0.00;0.00;;;11.20;99.90;;;;;;4925428;29;20093;-61
2021/12/30 09:27:35;;;;;;;0.10;0.10;;;11.60;99.90;;;;;;4926700;29;20109;-61
2021/12/30 09:30:02;;;;;;;0.00;0.00;;;11.20;99.90;;;;;;4934834;28;20047;-61
2021/12/30 09:32:27;;;;;;;0.00;0.00;;;11.60;99.90;;;;;;4924840;29;20048;-58
2021/12/30 09:34:53;;;;;;;0.00;0.00;;;11.40;99.90;;;;;;4925002;28;20048;-60
2021/12/30 09:37:18;;;;;;;0.00;0.00;;;11.40;99.90;;;;;;4929895;28;20561;-59
2021/12/30 09:39:44;;;;;;;0.00;0.00;;;11.40;99.90;;;;;;4944794;28;20536;-60
2021/12/30 09:42:10;;;;;;;0.00;0.00;;;11.30;99.90;;;;;;4944440;28;20093;-61
2021/12/30 09:44:36;;;;;;;0.00;0.00;;;11.50;99.90;;;;;;4943190;29;20051;-64
2021/12/30 09:47:02;;;;;;;0.10;0.10;;;11.50;99.90;;;;;;4944899;28;20484;-61
2021/12/30 09:49:28;;;;;;;0.00;0.00;;;11.50;99.90;;;;;;4944110;28;20043;-62
2021/12/30 09:51:54;;;;;;;0.00;0.00;;;11.50;99.90;;;;;;4943057;29;20511;-59
2021/12/30 09:54:21;;;;;;;0.00;0.00;;;11.60;99.90;;;;;;4943797;28;20101;-62
2021/12/30 09:56:47;;;;;;;0.00;0.00;;;11.60;99.90;;;;;;4944270;28;20097;-60
2021/12/30 09:59:13;;;;;;;0.30;0.30;;;12.10;99.90;;;;;;4944467;28;20051;-60
2021/12/30 10:01:41;;;;;;;0.00;0.00;;;11.80;99.90;;;;;;4944360;28;20065;-61
2021/12/30 10:04:08;;;;;;;0.00;0.00;;;11.70;99.90;;;;;;4942474;29;20048;-61
2021/12/30 10:06:40;;;;;;;0.00;0.00;;;11.70;99.90;;;;;;4943368;28;20066;-60
2021/12/30 10:09:11;;;;;;;0.00;0.00;;;12.00;99.90;;;;;;4944107;28;20047;-61
2021/12/30 10:11:53;;;;;;;0.00;0.00;;;11.70;99.90;;;;;;4944389;28;20051;-61
2021/12/30 10:14:32;;;;;;;0.00;0.00;;;12.20;99.90;;;;;;4942893;29;20044;-59
2021/12/30 10:17:22;;;;;;;0.00;0.00;;;11.70;99.90;;;;;;4944469;28;20051;-60
2021/12/30 10:19:50;;;;;;;0.00;0.00;;;11.80;99.90;;;;;;4943471;28;20054;-58
2021/12/30 10:22:19;;;;;;;0.00;0.00;;;11.70;99.90;;;;;;4942561;28;20055;-58
2021/12/30 10:24:45;;;;;;;0.05;0.05;;;11.70;99.90;;;;;;4965345;28;20611;-61
2021/12/30 10:27:26;;;;;;;1.00;0.38;;;11.70;99.90;;;;;;5000483;28;20049;-59
2021/12/30 10:29:52;;;;;;;0.00;0.00;;;11.70;99.90;;;;;;4931553;29;20189;-60
2021/12/30 10:32:27;;;;;;;0.00;0.00;;;11.70;99.90;;;;;;4943360;28;20197;-59
2021/12/30 10:35:14;;;;;;;0.00;0.00;;;11.70;99.90;;;;;;4942246;28;20398;-60
2021/12/30 10:37:45;;;;;;;0.00;0.00;;;11.70;99.90;;;;;;5011858;28;20081;-61
2021/12/30 10:40:29;;;;;;;0.10;0.10;;;11.70;99.90;;;;;;5022902;28;20049;-60
2021/12/30 10:43:24;;;;;;;0.00;0.00;;;11.70;99.90;;;;;;5024149;28;20088;-58
2021/12/30 10:46:12;;;;;;;0.00;0.00;;;12.30;99.90;;;;;;4945815;28;20044;-59
2021/12/30 10:49:08;;;;;;;0.63;0.63;;;11.60;99.90;;;;;;4913848;29;20062;-59
2021/12/30 10:51:43;;;;;;;0.00;0.00;;;11.60;99.90;;;;;;4929451;28;20055;-59
2021/12/30 10:54:14;;;;;;;0.00;0.00;;;11.60;99.90;;;;;;4982525;28;20063;-59
2021/12/30 10:56:44;;;;;;;0.00;0.00;;;11.60;99.90;;;;;;4972561;28;20051;-59
2021/12/30 10:59:21;;;;;;;0.00;0.00;;;11.60;99.90;;;;;;4941013;28;20112;-59
2021/12/30 11:01:52;;;;;;;0.00;0.00;;;11.60;99.90;;;;;;4942281;28;20105;-60
2021/12/30 11:04:20;;;;;;;0.00;0.00;;;11.50;99.90;;;;;;4942077;28;20047;-59
2021/12/30 11:06:46;;;;;;;0.00;0.00;;;11.50;99.90;;;;;;4941790;28;20525;-60
2021/12/30 11:09:16;;;;;;;0.00;0.00;;;11.50;99.90;;;;;;4942971;28;20063;-59
2021/12/30 11:11:46;;;;;;;0.00;0.00;;;11.50;99.90;;;;;;4941392;28;20054;-59
2021/12/30 11:14:20;;;;;;;0.00;0.00;;;12.70;99.90;;;;;;4941852;28;20055;-59
2021/12/30 11:16:57;;;;;;;;;;;11.50;99.90;;;;;;4977895;28;20046;-59
2021/12/30 11:19:23;;;;;;;0.00;0.00;;;11.50;99.90;;;;;;4997098;28;19925;-58
2021/12/30 11:21:51;;;;;;;0.00;0.00;;;12.60;99.90;;;;;;5023124;28;20046;-67
2021/12/30 11:24:18;;;;;;;0.00;0.00;;;11.80;99.90;;;;;;5022558;28;20042;-68
2021/12/30 11:26:44;;;;;;;0.00;0.00;;;11.50;99.90;;;;;;5021464;28;20084;-67
2021/12/30 11:29:10;;;;;;;0.00;0.00;;;12.50;99.90;;;;;;4948439;28;20051;-67
2021/12/30 11:31:36;;;;;;;0.00;0.00;;;12.10;99.90;;;;;;4924100;28;20581;-67
2021/12/30 11:34:03;;;;;;;1.90;0.75;;;11.50;99.90;;;;;;4921028;29;20681;-67
2021/12/30 11:36:29;;;;;;;0.10;0.10;;;11.50;99.90;;;;;;4922192;29;20054;-67
2021/12/30 11:38:57;;;;;;;0.00;0.00;;;11.50;99.90;;;;;;4922049;28;20052;-67
2021/12/30 11:41:24;;;;;;;0.00;0.00;;;11.50;99.90;;;;;;4921611;28;20234;-67
2021/12/30 11:43:50;;;;;;;0.00;0.00;;;11.50;99.90;;;;;;4923110;29;20051;-67
2021/12/30 11:46:45;;;;;;;0.00;0.00;;;12.70;99.90;;;;;;4922753;29;20038;-67
2021/12/30 11:49:13;;;;;;;0.10;0.10;;;11.40;99.90;;;;;;4922312;29;20418;-67
2021/12/30 11:51:43;;;;;;;0.08;0.08;;;11.50;99.90;;;;;;4922883;29;20044;-67
2021/12/30 11:54:30;;;;;;;0.08;0.08;;;11.50;99.90;;;;;;4923039;28;20138;-66
2021/12/30 11:57:25;;;;;;;0.30;0.20;;;11.40;99.90;;;;;;4922489;29;20048;-67
2021/12/30 11:59:52;;;;;;;0.00;0.00;;;11.50;99.90;;;;;;4921612;29;20122;-67
2021/12/30 12:02:30;;;;;;;0.68;0.43;;;11.70;99.90;;;;;;4921625;29;20044;-67
2021/12/30 12:04:56;;;;;;;0.20;0.20;;;11.60;99.90;;;;;;4921670;28;20048;-67
2021/12/30 12:07:22;;;;;;;0.00;0.00;;;12.40;99.90;;;;;;4922271;28;20104;-66
2021/12/30 12:09:49;;;;;;;1.05;0.15;;;11.50;99.90;;;;;;4921276;28;20063;-68
2021/12/30 12:12:32;;;;;;;0.25;0.25;;;11.50;99.90;;;;;;4922695;29;20509;-68
2021/12/30 12:15:01;;;;;;;26.67;1.45;;;11.50;99.90;;;;;;4921656;29;20529;-68
2021/12/30 12:17:35;;;;;;;0.00;0.00;;;11.50;99.90;;;;;;4921419;29;20051;-68
2021/12/30 12:20:14;;;;;;;0.63;0.30;;;11.50;99.90;;;;;;4921686;29;20665;-59
2021/12/30 12:22:39;;;;;;;0.00;0.00;;;11.50;99.90;;;;;;4922610;28;20052;-64
2021/12/30 12:25:10;;;;;;;0.00;0.00;;;11.60;99.90;;;;;;4922018;28;20048;-65
2021/12/30 12:27:42;;;;;;;0.10;0.10;;;11.90;99.90;;;;;;4952582;28;20130;-64
2021/12/30 12:30:20;;;;;;;0.00;0.00;;;12.10;99.90;;;;;;4959733;28;20048;-64
2021/12/30 12:32:47;;;;;;;0.00;0.00;;;11.60;99.90;;;;;;4980575;28;20037;-64
2021/12/30 12:35:19;;;;;;;0.00;0.00;;;11.60;99.90;;;;;;5025159;28;20089;-64
2021/12/30 12:37:47;;;;;;;1.50;0.60;;;11.70;99.90;;;;;;5025489;28;20057;-64
2021/12/30 12:40:15;;;;;;;0.50;0.50;;;12.60;99.90;;;;;;5026145;28;20046;-64
2021/12/30 12:42:50;;;;;;;0.10;0.10;;;11.80;99.90;;;;;;5024689;28;20041;-66
2021/12/30 12:45:18;;;;;;;0.10;0.10;;;12.00;99.90;;;;;;5024413;28;20159;-65
2021/12/30 12:47:44;;;;;;;0.00;0.00;;;11.80;99.90;;;;;;5026129;28;20083;-65
2021/12/30 12:50:10;;;;;;;0.00;0.00;;;12.20;99.90;;;;;;5020897;28;20148;-64
2021/12/30 12:52:47;;;;;;;0.00;0.00;;;11.80;99.90;;;;;;4949455;28;20138;-65
2021/12/30 12:55:21;;;;;;;0.00;0.00;;;12.00;99.90;;;;;;4927106;29;20055;-63
2021/12/30 12:57:47;;;;;;;0.10;0.10;;;12.30;99.90;;;;;;4927296;29;20051;-66